Time;durP1;ratioP1;P1;durP2;ratioP2;P2;SDS_P1;SDS_P2;PMS_P1;PMS_P2;Temp;Humidity;BMP_temperature;BMP_pressure;BME280_temperature;BME280_humidity;BME280_pressure;Samples;Min_cycle;Max_cycle;Signal;HPM_P1;HPM_P2
2023/05/26 00:01:47;;;;;;;33.22;5.18;;;10.20;99.90;;;;;;5057570;28;20495;-78
2023/05/26 00:04:16;;;;;;;26.27;4.40;;;10.20;99.90;;;;;;5061750;28;20452;-75
2023/05/26 00:06:43;;;;;;;29.13;5.22;;;10.10;99.90;;;;;;5065585;28;20392;-75
2023/05/26 00:09:09;;;;;;;30.60;5.20;;;10.10;99.90;;;;;;5068658;28;20020;-73
2023/05/26 00:11:34;;;;;;;28.90;4.65;;;10.10;99.90;;;;;;5069159;28;20484;-74
2023/05/26 00:14:00;;;;;;;27.98;6.22;;;10.10;99.90;;;;;;5069425;28;20379;-74
2023/05/26 00:16:25;;;;;;;23.85;4.90;;;10.10;99.90;;;;;;5067586;28;20035;-73
2023/05/26 00:18:52;;;;;;;27.25;5.95;;;10.10;99.90;;;;;;5059850;28;20020;-74
2023/05/26 00:21:18;;;;;;;24.15;4.40;;;10.10;99.90;;;;;;5061786;28;20097;-74
2023/05/26 00:23:44;;;;;;;25.90;4.78;;;10.10;99.90;;;;;;5069221;28;20411;-78
2023/05/26 00:26:09;;;;;;;25.20;4.97;;;10.10;99.90;;;;;;5069389;28;20139;-77
2023/05/26 00:28:35;;;;;;;28.55;4.93;;;10.10;99.90;;;;;;5066094;28;20116;-74
2023/05/26 00:31:00;;;;;;;25.95;5.25;;;10.00;99.90;;;;;;5067745;28;20424;-75
2023/05/26 00:33:26;;;;;;;27.83;4.70;;;10.00;99.90;;;;;;5068425;28;20036;-75
2023/05/26 00:35:51;;;;;;;19.27;5.43;;;10.10;99.90;;;;;;5059954;28;20036;-74
2023/05/26 00:38:17;;;;;;;31.67;5.93;;;10.10;99.90;;;;;;5064748;28;20388;-77
2023/05/26 00:40:43;;;;;;;26.52;4.60;;;10.10;99.90;;;;;;5060972;28;20039;-74
2023/05/26 00:43:08;;;;;;;25.55;4.65;;;10.10;99.90;;;;;;5058270;28;20035;-74
2023/05/26 00:45:36;;;;;;;25.73;5.18;;;10.10;99.90;;;;;;5057599;28;20385;-74
2023/05/26 00:48:02;;;;;;;30.83;5.40;;;10.00;99.90;;;;;;5057490;28;20021;-74
2023/05/26 00:50:29;;;;;;;32.88;5.82;;;10.00;99.90;;;;;;5059574;28;20104;-74
2023/05/26 00:52:55;;;;;;;21.75;4.43;;;10.00;99.90;;;;;;5060162;28;20043;-74
2023/05/26 00:55:23;;;;;;;20.73;4.57;;;10.00;99.90;;;;;;5061906;28;20032;-74
2023/05/26 00:57:49;;;;;;;24.27;4.45;;;10.00;99.90;;;;;;5050837;28;20039;-73
2023/05/26 01:00:16;;;;;;;31.60;5.93;;;9.90;99.90;;;;;;5038843;28;20025;-73
2023/05/26 01:02:45;;;;;;;31.83;5.25;;;9.90;99.90;;;;;;5068826;28;20051;-74
2023/05/26 01:05:15;;;;;;;27.67;5.07;;;9.80;99.90;;;;;;5059416;28;20048;-74
2023/05/26 01:07:41;;;;;;;29.05;6.38;;;9.80;99.90;;;;;;5061411;28;20077;-75
2023/05/26 01:10:07;;;;;;;24.15;5.18;;;9.80;99.90;;;;;;5056610;28;20053;-75
2023/05/26 01:12:38;;;;;;;21.65;4.60;;;9.80;99.90;;;;;;5068693;28;20123;-75
2023/05/26 01:15:09;;;;;;;26.40;4.88;;;9.70;99.90;;;;;;5068309;28;20020;-72
2023/05/26 01:17:44;;;;;;;27.23;5.32;;;9.70;99.90;;;;;;5064911;28;20051;-74
2023/05/26 01:20:13;;;;;;;24.95;5.57;;;9.70;99.90;;;;;;5071756;28;20028;-73
2023/05/26 01:22:56;;;;;;;29.55;5.65;;;9.70;99.90;;;;;;5059057;28;20029;-74
2023/05/26 01:25:46;;;;;;;25.17;5.82;;;9.70;99.90;;;;;;5063709;28;20028;-75
2023/05/26 01:28:25;;;;;;;29.02;5.70;;;9.70;99.90;;;;;;5055460;28;20024;-74
2023/05/26 01:30:52;;;;;;;22.15;4.70;;;9.60;99.90;;;;;;5058937;28;20076;-74
2023/05/26 01:33:18;;;;;;;26.25;5.57;;;9.60;99.90;;;;;;5064832;28;20035;-74
2023/05/26 01:35:44;;;;;;;25.60;5.20;;;9.60;99.90;;;;;;5065486;28;20025;-76
2023/05/26 01:38:11;;;;;;;26.15;5.75;;;9.60;99.90;;;;;;5056500;28;20357;-74
2023/05/26 01:40:39;;;;;;;30.08;5.82;;;9.60;99.90;;;;;;5058800;28;20039;-74
2023/05/26 01:43:19;;;;;;;29.48;6.15;;;9.60;99.90;;;;;;5067759;28;20450;-74
2023/05/26 01:46:15;;;;;;;27.50;5.90;;;9.60;99.90;;;;;;5061388;28;20028;-74
2023/05/26 01:48:45;;;;;;;28.63;5.45;;;9.50;99.90;;;;;;5055769;28;20024;-76
2023/05/26 01:51:15;;;;;;;29.48;5.43;;;9.50;99.90;;;;;;5061347;28;20053;-74
2023/05/26 01:53:44;;;;;;;29.90;5.90;;;9.50;99.90;;;;;;5065741;28;20032;-74
2023/05/26 01:56:11;;;;;;;27.08;5.68;;;9.50;99.90;;;;;;5056359;28;20085;-76
2023/05/26 01:58:37;;;;;;;31.33;5.15;;;9.50;99.90;;;;;;5063520;28;20104;-73
2023/05/26 02:01:04;;;;;;;28.30;5.18;;;9.50;99.90;;;;;;5065432;28;20112;-73
2023/05/26 02:03:29;;;;;;;32.72;6.78;;;9.50;99.90;;;;;;5062577;28;20025;-73
2023/05/26 02:05:55;;;;;;;34.50;7.22;;;9.50;99.90;;;;;;5058156;28;20029;-73
2023/05/26 02:08:22;;;;;;;29.30;6.32;;;9.50;99.90;;;;;;5068932;28;20029;-74
2023/05/26 02:10:48;;;;;;;23.42;4.70;;;9.50;99.90;;;;;;5057212;28;20025;-74
2023/05/26 02:13:13;;;;;;;27.42;5.45;;;9.50;99.90;;;;;;5063839;28;20381;-73
2023/05/26 02:15:39;;;;;;;25.25;5.43;;;9.50;99.90;;;;;;5045526;28;20028;-74
2023/05/26 02:18:05;;;;;;;25.75;5.97;;;9.50;99.90;;;;;;5056521;28;20084;-74
2023/05/26 02:20:31;;;;;;;34.78;6.53;;;9.50;99.90;;;;;;5054711;28;20025;-73
2023/05/26 02:22:56;;;;;;;26.95;5.93;;;9.50;99.90;;;;;;5071075;28;20030;-74
2023/05/26 02:25:22;;;;;;;32.15;6.35;;;9.50;99.90;;;;;;5062596;28;20060;-74
2023/05/26 02:27:47;;;;;;;32.45;6.32;;;9.50;99.90;;;;;;5065069;28;20357;-74
2023/05/26 02:30:13;;;;;;;34.72;7.05;;;9.50;99.90;;;;;;5055249;28;20056;-73
2023/05/26 02:32:39;;;;;;;30.15;6.57;;;9.50;99.90;;;;;;5068562;28;20075;-75
2023/05/26 02:35:05;;;;;;;28.92;5.70;;;9.50;99.90;;;;;;5059170;28;20017;-75
2023/05/26 02:37:31;;;;;;;28.80;6.10;;;9.50;99.90;;;;;;5061606;28;20014;-74
2023/05/26 02:39:57;;;;;;;29.30;5.53;;;9.50;99.90;;;;;;5066200;28;20027;-73
2023/05/26 02:42:23;;;;;;;26.00;5.50;;;9.50;99.90;;;;;;5055589;28;20090;-74
2023/05/26 02:44:48;;;;;;;30.65;6.40;;;9.50;99.90;;;;;;5049283;28;20430;-75
2023/05/26 02:47:14;;;;;;;28.25;6.15;;;9.50;99.90;;;;;;5042496;28;20029;-76
2023/05/26 02:49:40;;;;;;;30.85;7.03;;;9.50;99.90;;;;;;5059993;28;20134;-74
2023/05/26 02:52:06;;;;;;;27.10;6.18;;;9.50;99.90;;;;;;5067313;28;20033;-75
2023/05/26 02:54:31;;;;;;;29.42;5.68;;;9.50;99.90;;;;;;5055669;28;20035;-73
2023/05/26 02:56:57;;;;;;;29.42;5.72;;;9.50;99.90;;;;;;5065814;28;20104;-73
2023/05/26 02:59:22;;;;;;;31.92;6.53;;;9.40;99.90;;;;;;5061157;28;20021;-73
2023/05/26 03:01:48;;;;;;;28.95;6.18;;;9.50;99.90;;;;;;5059932;28;20025;-73
2023/05/26 03:04:14;;;;;;;36.67;6.32;;;9.50;99.90;;;;;;5072074;28;20025;-75
2023/05/26 03:06:41;;;;;;;28.80;6.10;;;9.40;99.90;;;;;;5059085;28;20017;-73
2023/05/26 03:09:07;;;;;;;28.80;6.78;;;9.40;99.90;;;;;;5068441;28;20039;-75
2023/05/26 03:11:33;;;;;;;28.02;5.95;;;9.40;99.90;;;;;;5066399;28;20025;-74
2023/05/26 03:13:59;;;;;;;31.67;7.57;;;9.40;99.90;;;;;;5060798;28;20039;-73
2023/05/26 03:16:25;;;;;;;32.58;6.15;;;9.40;99.90;;;;;;5054012;28;20029;-75
2023/05/26 03:18:51;;;;;;;29.77;6.78;;;9.40;99.90;;;;;;5060546;28;20016;-74
2023/05/26 03:21:17;;;;;;;25.80;5.68;;;9.40;99.90;;;;;;5066822;28;20020;-74
2023/05/26 03:23:42;;;;;;;31.30;6.32;;;9.40;99.90;;;;;;5067908;28;20029;-75
2023/05/26 03:26:08;;;;;;;34.42;6.70;;;9.40;99.90;;;;;;5059317;28;20051;-74
2023/05/26 03:28:33;;;;;;;30.58;5.93;;;9.40;99.90;;;;;;5076886;28;20376;-75
2023/05/26 03:30:59;;;;;;;29.73;6.55;;;9.40;99.90;;;;;;5074869;28;20102;-78
2023/05/26 03:33:25;;;;;;;28.90;6.55;;;9.40;99.90;;;;;;5065541;28;20029;-77
2023/05/26 03:35:51;;;;;;;31.67;6.97;;;9.40;99.90;;;;;;5068304;28;20031;-76
2023/05/26 03:38:17;;;;;;;27.20;5.60;;;9.40;99.90;;;;;;5058040;28;20441;-74
2023/05/26 03:40:43;;;;;;;27.58;5.88;;;9.50;99.90;;;;;;5070616;28;20373;-74
2023/05/26 03:43:09;;;;;;;30.08;6.40;;;9.50;99.90;;;;;;5061769;28;20028;-75
2023/05/26 03:45:34;;;;;;;36.35;6.28;;;9.50;99.90;;;;;;5063252;28;20512;-75
2023/05/26 03:48:00;;;;;;;33.13;7.13;;;9.50;99.90;;;;;;5068619;28;20036;-75
2023/05/26 03:50:25;;;;;;;30.15;6.80;;;9.50;99.90;;;;;;5056122;28;20021;-78
2023/05/26 03:52:51;;;;;;;29.15;6.40;;;9.50;99.90;;;;;;5059378;28;20088;-75
2023/05/26 03:55:17;;;;;;;30.50;6.65;;;9.60;99.90;;;;;;5065781;28;20408;-74
2023/05/26 03:57:43;;;;;;;33.42;5.93;;;9.60;99.90;;;;;;5062190;28;20461;-74
2023/05/26 04:00:13;;;;;;;22.08;5.30;;;9.60;99.90;;;;;;5070430;28;20079;-74
2023/05/26 04:02:39;;;;;;;29.35;6.32;;;9.70;99.90;;;;;;5057987;28;20024;-74
2023/05/26 04:05:05;;;;;;;27.15;5.82;;;9.70;99.90;;;;;;5067812;28;20524;-74
2023/05/26 04:07:31;;;;;;;26.90;6.30;;;9.70;99.90;;;;;;5065167;28;20024;-77
2023/05/26 04:09:56;;;;;;;29.38;6.40;;;9.70;99.90;;;;;;5060330;28;20029;-73
2023/05/26 04:12:22;;;;;;;29.08;5.95;;;9.70;99.90;;;;;;5070668;28;20033;-75
2023/05/26 04:14:48;;;;;;;26.70;6.18;;;9.80;99.90;;;;;;5058043;28;20031;-74
2023/05/26 04:17:14;;;;;;;34.88;6.63;;;9.80;99.90;;;;;;5067493;28;20048;-75
2023/05/26 04:19:39;;;;;;;25.48;5.60;;;9.90;99.90;;;;;;5062701;28;20466;-74
2023/05/26 04:22:05;;;;;;;23.77;5.00;;;9.90;99.90;;;;;;5054559;28;20066;-75
2023/05/26 04:24:31;;;;;;;28.73;6.18;;;10.00;99.90;;;;;;5070550;28;20033;-75
2023/05/26 04:26:57;;;;;;;27.38;5.05;;;10.00;99.90;;;;;;5059791;28;20100;-75
2023/05/26 04:29:23;;;;;;;24.48;5.40;;;10.10;99.90;;;;;;5064763;28;20037;-74
2023/05/26 04:31:51;;;;;;;32.58;7.80;;;10.10;99.90;;;;;;5067113;28;20550;-73
2023/05/26 04:34:21;;;;;;;24.88;5.18;;;10.20;99.90;;;;;;5057280;28;20355;-75
2023/05/26 04:36:48;;;;;;;26.67;5.60;;;10.20;99.90;;;;;;5070099;28;20086;-72
2023/05/26 04:39:14;;;;;;;27.45;6.40;;;10.30;99.90;;;;;;5064440;28;20025;-74
2023/05/26 04:41:41;;;;;;;25.73;4.07;;;10.30;99.90;;;;;;5065255;28;20024;-72
2023/05/26 04:44:07;;;;;;;30.45;5.70;;;10.40;99.90;;;;;;5081111;28;20115;-72
2023/05/26 04:46:37;;;;;;;31.05;6.20;;;10.40;99.90;;;;;;5048356;28;20071;-73
2023/05/26 04:49:07;;;;;;;26.80;5.13;;;10.50;99.90;;;;;;5056313;28;20384;-74
2023/05/26 04:51:32;;;;;;;27.77;5.68;;;10.50;99.90;;;;;;5065651;28;20025;-75
2023/05/26 04:53:59;;;;;;;24.15;5.43;;;10.60;99.90;;;;;;5073404;28;20107;-73
2023/05/26 04:56:26;;;;;;;29.30;6.38;;;10.70;99.90;;;;;;5063324;28;20024;-74
2023/05/26 04:58:52;;;;;;;32.75;5.32;;;10.80;99.90;;;;;;5062171;28;20017;-73
2023/05/26 05:01:18;;;;;;;22.27;4.32;;;10.80;99.90;;;;;;5071851;28;20029;-76
2023/05/26 05:03:44;;;;;;;22.63;5.32;;;11.00;99.90;;;;;;5059601;28;20495;-78
2023/05/26 05:06:10;;;;;;;29.30;5.55;;;11.00;99.90;;;;;;5063061;28;20104;-76
2023/05/26 05:08:37;;;;;;;25.73;4.80;;;11.10;99.90;;;;;;5064046;28;20028;-74
2023/05/26 05:11:03;;;;;;;24.20;5.10;;;11.20;99.90;;;;;;5060325;28;20077;-73
2023/05/26 05:13:30;;;;;;;21.42;4.15;;;11.40;99.90;;;;;;5062848;28;20033;-75
2023/05/26 05:15:56;;;;;;;29.58;5.03;;;11.50;99.90;;;;;;5065104;28;20035;-74
2023/05/26 05:18:21;;;;;;;24.00;4.28;;;11.60;99.90;;;;;;5037548;28;20016;-78
2023/05/26 05:20:47;;;;;;;25.33;4.40;;;11.70;99.90;;;;;;5057659;28;20444;-73
2023/05/26 05:23:13;;;;;;;29.42;4.68;;;11.80;99.90;;;;;;5064718;28;20047;-75
2023/05/26 05:25:38;;;;;;;27.95;4.88;;;11.80;99.90;;;;;;5063514;28;20075;-76
2023/05/26 05:28:04;;;;;;;25.42;5.22;;;12.00;99.90;;;;;;5041521;28;20025;-75
2023/05/26 05:30:29;;;;;;;22.55;4.07;;;12.10;99.90;;;;;;5074016;28;20077;-73
2023/05/26 05:32:55;;;;;;;25.40;4.63;;;12.20;99.90;;;;;;5049559;28;20052;-74
2023/05/26 05:35:21;;;;;;;25.48;5.13;;;12.40;99.90;;;;;;5062438;28;20050;-74
2023/05/26 05:37:46;;;;;;;20.48;4.53;;;12.50;99.90;;;;;;5059984;28;20106;-73
2023/05/26 05:40:12;;;;;;;18.35;4.40;;;12.80;99.90;;;;;;5051136;28;20040;-72
2023/05/26 05:42:38;;;;;;;28.08;4.25;;;12.90;99.90;;;;;;5056416;28;20035;-74
2023/05/26 05:45:05;;;;;;;21.65;4.28;;;13.20;99.90;;;;;;5066131;28;20033;-73
2023/05/26 05:47:30;;;;;;;20.52;3.28;;;13.50;99.90;;;;;;5063717;28;20025;-75
2023/05/26 05:49:56;;;;;;;22.30;4.40;;;13.70;99.90;;;;;;5058967;28;20033;-74
2023/05/26 05:52:21;;;;;;;19.33;3.92;;;14.00;99.90;;;;;;5068714;28;20036;-74
2023/05/26 05:54:47;;;;;;;28.77;4.60;;;14.40;99.90;;;;;;5038700;28;20021;-75
2023/05/26 05:57:12;;;;;;;28.33;5.20;;;14.70;99.90;;;;;;5059980;28;20092;-73
2023/05/26 05:59:38;;;;;;;17.48;3.63;;;15.20;99.90;;;;;;5061082;28;20028;-75
2023/05/26 06:02:03;;;;;;;21.77;4.18;;;15.80;99.90;;;;;;5059823;28;20024;-74
2023/05/26 06:04:29;;;;;;;18.10;3.60;;;16.00;99.90;;;;;;5058819;28;20029;-75
2023/05/26 06:06:56;;;;;;;23.02;3.90;;;16.20;99.90;;;;;;5056283;28;20384;-74
2023/05/26 06:09:21;;;;;;;13.23;3.28;;;16.40;99.90;;;;;;5059576;28;20036;-75
2023/05/26 06:11:47;;;;;;;16.00;3.50;;;16.70;99.50;;;;;;5053896;28;20163;-75
2023/05/26 06:14:13;;;;;;;23.95;4.22;;;17.00;99.30;;;;;;5057825;28;20024;-73
2023/05/26 06:16:38;;;;;;;19.75;3.70;;;17.20;98.70;;;;;;5059002;28;20024;-73
2023/05/26 06:19:04;;;;;;;24.08;4.72;;;17.30;98.30;;;;;;5053500;28;20090;-74
2023/05/26 06:21:29;;;;;;;17.42;3.58;;;17.30;98.40;;;;;;5060395;28;20135;-72
2023/05/26 06:23:55;;;;;;;19.92;3.53;;;17.70;97.90;;;;;;5041058;28;20032;-73
2023/05/26 06:26:21;;;;;;;16.13;3.58;;;18.20;97.00;;;;;;5054000;28;20051;-75
2023/05/26 06:28:46;;;;;;;19.92;3.92;;;18.40;96.40;;;;;;5063162;28;20028;-75
2023/05/26 06:31:12;;;;;;;18.67;4.45;;;18.30;96.10;;;;;;5054565;28;20365;-74
2023/05/26 06:33:37;;;;;;;18.73;3.97;;;18.30;95.80;;;;;;5063201;28;20045;-75
2023/05/26 06:36:03;;;;;;;15.95;3.55;;;18.20;96.00;;;;;;5057150;28;20029;-74
2023/05/26 06:38:29;;;;;;;18.73;3.47;;;17.90;95.60;;;;;;5072732;28;20051;-75
2023/05/26 06:40:54;;;;;;;19.42;4.10;;;17.60;96.10;;;;;;5061763;28;20028;-75
2023/05/26 06:43:20;;;;;;;21.33;3.55;;;17.20;96.50;;;;;;5049081;28;20055;-74
2023/05/26 06:45:46;;;;;;;17.20;3.63;;;16.80;96.90;;;;;;5050286;28;20435;-74
2023/05/26 06:48:11;;;;;;;17.85;3.20;;;16.70;97.40;;;;;;5059361;28;20033;-77
2023/05/26 06:50:37;;;;;;;13.70;3.13;;;16.60;97.60;;;;;;5072210;28;20458;-77
2023/05/26 06:53:03;;;;;;;15.07;3.30;;;16.50;97.50;;;;;;5062784;28;20376;-74
2023/05/26 06:55:28;;;;;;;16.63;3.58;;;16.30;97.60;;;;;;5065776;28;20060;-75
2023/05/26 06:57:54;;;;;;;18.50;4.18;;;15.90;98.00;;;;;;5065604;28;20064;-75
2023/05/26 07:00:21;;;;;;;19.52;3.78;;;15.60;98.60;;;;;;5057607;28;20025;-79
2023/05/26 07:02:47;;;;;;;15.68;3.42;;;15.30;99.10;;;;;;5059153;28;20039;-73
2023/05/26 07:05:12;;;;;;;26.58;4.07;;;15.20;99.70;;;;;;5063736;28;20025;-75
2023/05/26 07:07:38;;;;;;;18.77;3.72;;;15.30;99.90;;;;;;5066795;28;20028;-75
2023/05/26 07:10:05;;;;;;;19.52;3.45;;;16.10;99.20;;;;;;5059082;28;20053;-75
2023/05/26 07:12:30;;;;;;;16.42;3.63;;;17.30;97.50;;;;;;5070849;28;20025;-73
2023/05/26 07:14:56;;;;;;;18.60;4.10;;;18.30;95.90;;;;;;5061090;28;20126;-75
2023/05/26 07:17:22;;;;;;;16.88;3.72;;;18.80;95.00;;;;;;5066180;28;20412;-76
2023/05/26 07:19:47;;;;;;;17.95;4.03;;;19.30;94.30;;;;;;5049626;28;20025;-75
2023/05/26 07:22:13;;;;;;;17.77;4.53;;;19.90;93.70;;;;;;5057884;28;20033;-75
2023/05/26 07:24:38;;;;;;;16.90;3.53;;;20.20;92.90;;;;;;5054592;28;20074;-76
2023/05/26 07:27:04;;;;;;;15.07;3.20;;;20.30;92.50;;;;;;5068175;28;20021;-74
2023/05/26 07:29:32;;;;;;;19.75;3.40;;;20.30;92.30;;;;;;5079814;28;20072;-74
2023/05/26 07:31:57;;;;;;;14.13;3.97;;;20.00;92.50;;;;;;5067835;28;20560;-78
2023/05/26 07:34:23;;;;;;;14.55;3.35;;;19.80;92.90;;;;;;5073385;28;20048;-77
2023/05/26 07:36:49;;;;;;;12.30;3.45;;;19.80;93.10;;;;;;5069741;28;20052;-77
2023/05/26 07:39:14;;;;;;;15.95;3.65;;;19.50;93.40;;;;;;5070233;28;20021;-77
2023/05/26 07:41:40;;;;;;;18.05;3.40;;;19.40;93.50;;;;;;5073911;28;20025;-76
2023/05/26 07:44:05;;;;;;;19.17;3.70;;;19.20;93.60;;;;;;5069398;28;20020;-76
2023/05/26 07:46:31;;;;;;;15.82;3.40;;;19.20;93.70;;;;;;5065502;28;20495;-76
2023/05/26 07:48:56;;;;;;;15.98;3.30;;;19.10;93.80;;;;;;5062090;28;20024;-77
2023/05/26 07:51:22;;;;;;;19.45;4.05;;;18.90;94.00;;;;;;5049339;28;20019;-77
2023/05/26 07:53:47;;;;;;;18.48;3.47;;;18.80;94.30;;;;;;5061716;28;20170;-77
2023/05/26 07:56:13;;;;;;;23.00;3.60;;;18.70;93.90;;;;;;5065407;28;20028;-77
2023/05/26 07:58:39;;;;;;;13.65;3.20;;;18.60;94.00;;;;;;5053391;28;20021;-78
2023/05/26 08:01:08;;;;;;;15.40;3.38;;;18.70;94.00;;;;;;5061050;28;20024;-78
2023/05/26 08:03:34;;;;;;;20.40;4.15;;;18.80;93.70;;;;;;5063228;28;20029;-79
2023/05/26 08:06:00;;;;;;;14.45;3.10;;;18.80;93.50;;;;;;5069333;28;20131;-80
2023/05/26 08:08:25;;;;;;;14.30;3.70;;;19.00;93.50;;;;;;5058225;28;20056;-80
2023/05/26 08:10:51;;;;;;;20.08;3.67;;;19.30;93.20;;;;;;5064295;28;20029;-78
2023/05/26 08:13:16;;;;;;;20.67;3.65;;;19.70;92.90;;;;;;5072537;28;20041;-76
2023/05/26 08:15:42;;;;;;;16.63;4.07;;;20.20;92.60;;;;;;5073907;28;20029;-76
2023/05/26 08:18:08;;;;;;;16.33;3.83;;;21.00;91.80;;;;;;5072809;28;20032;-76
2023/05/26 08:20:34;;;;;;;17.23;3.80;;;21.70;91.00;;;;;;5073453;28;20025;-78
2023/05/26 08:22:59;;;;;;;16.58;3.28;;;22.40;90.30;;;;;;5067669;28;20469;-76
2023/05/26 08:25:25;;;;;;;15.68;3.38;;;23.00;88.80;;;;;;5062017;28;20025;-77
2023/05/26 08:27:51;;;;;;;17.42;3.15;;;23.40;87.20;;;;;;5061498;28;20032;-77
2023/05/26 08:30:16;;;;;;;16.50;3.40;;;23.60;85.10;;;;;;5063875;28;20055;-76
2023/05/26 08:32:42;;;;;;;16.35;3.30;;;23.80;84.50;;;;;;5070368;28;20045;-76
2023/05/26 08:35:08;;;;;;;17.42;4.15;;;24.00;84.30;;;;;;5056630;28;20102;-76
2023/05/26 08:37:34;;;;;;;11.27;3.33;;;24.20;83.80;;;;;;5053545;28;20025;-77
2023/05/26 08:39:59;;;;;;;14.50;3.95;;;24.50;82.50;;;;;;5054856;28;20156;-76
2023/05/26 08:42:33;;;;;;;17.60;3.40;;;24.60;81.90;;;;;;5062924;28;20028;-76
2023/05/26 08:44:59;;;;;;;13.43;3.22;;;24.80;81.30;;;;;;5063470;28;20396;-77
2023/05/26 08:47:26;;;;;;;14.93;4.13;;;25.20;80.40;;;;;;5057393;28;20025;-77
2023/05/26 08:50:02;;;;;;;14.27;3.20;;;25.70;80.30;;;;;;5055465;28;20061;-77
2023/05/26 08:52:28;;;;;;;17.88;3.88;;;26.40;78.40;;;;;;5054015;28;20108;-77
2023/05/26 08:54:54;;;;;;;19.27;3.60;;;26.40;77.50;;;;;;5061894;28;20448;-78
2023/05/26 08:57:20;;;;;;;15.25;3.80;;;26.50;77.10;;;;;;5067158;28;20053;-76
2023/05/26 08:59:49;;;;;;;12.60;3.45;;;26.60;76.30;;;;;;5053241;28;20017;-75
2023/05/26 09:02:15;;;;;;;18.67;4.07;;;26.70;76.30;;;;;;5070400;28;20037;-76
2023/05/26 09:04:41;;;;;;;15.38;3.75;;;26.90;76.10;;;;;;5071816;28;20024;-77
2023/05/26 09:07:07;;;;;;;17.63;3.75;;;27.30;74.80;;;;;;5070435;28;20116;-76
2023/05/26 09:09:33;;;;;;;19.23;3.70;;;27.10;74.60;;;;;;5060965;28;20078;-75
2023/05/26 09:11:58;;;;;;;17.52;3.67;;;26.70;75.00;;;;;;5054686;28;20489;-75
2023/05/26 09:14:24;;;;;;;16.17;4.22;;;26.40;74.90;;;;;;5051656;28;20029;-73
2023/05/26 09:16:50;;;;;;;20.20;4.38;;;26.40;75.10;;;;;;5053243;28;20033;-74
2023/05/26 09:19:17;;;;;;;18.80;4.47;;;26.70;75.10;;;;;;5053308;28;20423;-74
2023/05/26 09:21:50;;;;;;;16.55;3.90;;;27.00;74.50;;;;;;5053518;28;20060;-74
2023/05/26 09:24:22;;;;;;;19.33;4.25;;;27.10;74.20;;;;;;5058134;28;20024;-74
2023/05/26 09:26:49;;;;;;;16.40;3.30;;;26.60;74.40;;;;;;5053969;28;20060;-73
2023/05/26 09:29:15;;;;;;;15.32;4.15;;;26.20;74.50;;;;;;5066037;28;20036;-74
2023/05/26 09:31:46;;;;;;;17.48;4.05;;;26.10;75.10;;;;;;5061989;28;20036;-75
2023/05/26 09:34:13;;;;;;;14.45;3.42;;;26.20;75.20;;;;;;5065486;28;20097;-75
2023/05/26 09:36:40;;;;;;;20.45;4.13;;;26.90;74.10;;;;;;5062099;28;20024;-75
2023/05/26 09:39:12;;;;;;;17.15;3.70;;;27.30;73.70;;;;;;5061735;28;20109;-73
2023/05/26 09:41:39;;;;;;;14.02;3.72;;;27.60;73.00;;;;;;5072888;28;20025;-71
2023/05/26 09:44:13;;;;;;;14.68;3.70;;;27.90;72.00;;;;;;5056666;28;20049;-71
2023/05/26 09:46:40;;;;;;;15.65;3.85;;;28.00;71.60;;;;;;5053068;28;20066;-73
2023/05/26 09:49:14;;;;;;;14.70;3.92;;;28.00;71.80;;;;;;5053343;28;20025;-72
2023/05/26 09:51:41;;;;;;;14.47;3.43;;;28.50;71.10;;;;;;5057104;28;20033;-73
2023/05/26 09:54:11;;;;;;;17.70;5.05;;;28.50;70.10;;;;;;5066008;28;20381;-72
2023/05/26 09:56:50;;;;;;;17.13;4.13;;;28.60;70.30;;;;;;5055779;28;20036;-73
2023/05/26 09:59:16;;;;;;;21.20;4.35;;;28.90;70.00;;;;;;5059664;28;20025;-72
2023/05/26 10:01:43;;;;;;;14.18;3.78;;;29.10;69.50;;;;;;5062176;28;20556;-73
2023/05/26 10:04:10;;;;;;;20.92;4.15;;;29.20;68.80;;;;;;5062999;28;20511;-73
2023/05/26 10:06:39;;;;;;;14.90;3.97;;;29.30;68.40;;;;;;5061092;28;20028;-75
2023/05/26 10:09:06;;;;;;;17.90;4.05;;;29.40;68.10;;;;;;5052591;28;20053;-74
2023/05/26 10:11:35;;;;;;;15.90;3.90;;;29.60;67.20;;;;;;5035769;28;20100;-73
2023/05/26 10:14:02;;;;;;;18.80;4.22;;;29.70;67.30;;;;;;5062330;28;20607;-75
2023/05/26 10:16:28;;;;;;;17.73;3.80;;;30.00;66.80;;;;;;5057106;28;20473;-75
2023/05/26 10:18:54;;;;;;;19.88;4.65;;;30.10;66.10;;;;;;5065562;28;20036;-72
2023/05/26 10:21:24;;;;;;;13.88;3.67;;;30.10;65.90;;;;;;5065924;28;20021;-74
2023/05/26 10:24:04;;;;;;;12.40;3.50;;;29.90;65.60;;;;;;5065859;28;20040;-73
2023/05/26 10:26:43;;;;;;;18.70;4.00;;;29.60;65.60;;;;;;5048385;28;20052;-72
2023/05/26 10:29:17;;;;;;;15.88;3.60;;;29.50;65.90;;;;;;5068434;28;20053;-72
2023/05/26 10:31:42;;;;;;;16.67;3.78;;;29.90;65.60;;;;;;5068742;28;20041;-70
2023/05/26 10:34:12;;;;;;;15.10;3.30;;;30.10;65.50;;;;;;5060021;28;20036;-73
2023/05/26 10:36:38;;;;;;;15.20;4.05;;;29.80;65.20;;;;;;5070412;28;20027;-73
2023/05/26 10:39:17;;;;;;;15.68;3.72;;;29.40;65.90;;;;;;5078107;28;20033;-74
2023/05/26 10:41:52;;;;;;;15.52;3.83;;;29.20;65.90;;;;;;5079849;28;20460;-73
2023/05/26 10:44:43;;;;;;;14.10;3.33;;;29.20;65.90;;;;;;5069898;28;20032;-74
2023/05/26 10:47:14;;;;;;;13.68;3.22;;;29.40;65.10;;;;;;5055980;28;20083;-72
2023/05/26 10:49:40;;;;;;;16.30;4.20;;;29.80;65.00;;;;;;5057614;28;20040;-72
2023/05/26 10:52:13;;;;;;;15.63;2.97;;;29.80;64.90;;;;;;5068762;28;20039;-72
2023/05/26 10:54:40;;;;;;;16.08;3.75;;;29.50;64.80;;;;;;5057806;28;20032;-71
2023/05/26 10:57:26;;;;;;;17.50;3.47;;;29.20;64.90;;;;;;5063607;28;20033;-73
2023/05/26 10:59:53;;;;;;;16.05;3.67;;;29.00;65.20;;;;;;5062588;28;20488;-73
2023/05/26 11:02:21;;;;;;;13.50;3.35;;;29.20;65.30;;;;;;5055970;28;20029;-72
2023/05/26 11:04:48;;;;;;;14.32;3.67;;;29.50;64.90;;;;;;5061912;28;20458;-72
2023/05/26 11:07:32;;;;;;;16.48;3.78;;;29.80;64.40;;;;;;5038719;28;20074;-72
2023/05/26 11:10:06;;;;;;;14.05;3.35;;;29.70;64.40;;;;;;5066533;28;20052;-72
2023/05/26 11:12:54;;;;;;;15.90;3.75;;;29.90;64.20;;;;;;5066937;28;20029;-72
2023/05/26 11:15:31;;;;;;;16.85;3.80;;;29.70;64.30;;;;;;5061761;28;20052;-72
2023/05/26 11:18:01;;;;;;;18.00;3.65;;;29.70;63.90;;;;;;5056710;28;20021;-72
2023/05/26 11:20:27;;;;;;;14.20;3.50;;;29.90;63.80;;;;;;5072738;28;20044;-73
2023/05/26 11:22:53;;;;;;;11.05;3.25;;;30.10;63.80;;;;;;5065299;28;20142;-73
2023/05/26 11:25:19;;;;;;;13.48;3.35;;;30.00;62.80;;;;;;5061516;28;20044;-72
2023/05/26 11:27:49;;;;;;;14.90;3.10;;;29.90;62.70;;;;;;5054955;28;20079;-74
2023/05/26 11:30:15;;;;;;;13.35;3.15;;;29.90;63.30;;;;;;5062980;28;20044;-72
2023/05/26 11:32:48;;;;;;;10.00;2.80;;;29.80;63.20;;;;;;5060255;28;20059;-71
2023/05/26 11:35:27;;;;;;;15.38;3.80;;;29.80;63.30;;;;;;5055690;28;20496;-72
2023/05/26 11:37:54;;;;;;;13.40;3.33;;;29.80;64.00;;;;;;5061162;28;20464;-72
2023/05/26 11:40:20;;;;;;;13.90;3.28;;;30.00;63.30;;;;;;5060832;28;20055;-75
2023/05/26 11:42:51;;;;;;;15.95;3.65;;;30.00;63.50;;;;;;5086224;28;20067;-71
2023/05/26 11:45:17;;;;;;;16.05;3.22;;;30.10;63.90;;;;;;5066867;28;20034;-72
2023/05/26 11:47:43;;;;;;;12.93;3.40;;;29.90;63.60;;;;;;5059228;28;20104;-73
2023/05/26 11:50:10;;;;;;;16.92;3.22;;;29.80;63.30;;;;;;5064798;28;20028;-72
2023/05/26 11:52:48;;;;;;;18.25;3.58;;;29.70;63.40;;;;;;5067539;28;20041;-73
2023/05/26 11:55:18;;;;;;;17.77;3.80;;;29.90;63.50;;;;;;5037337;28;20029;-75
2023/05/26 11:57:55;;;;;;;18.48;3.42;;;30.20;63.10;;;;;;5060257;28;20106;-73
2023/05/26 12:00:22;;;;;;;15.00;3.72;;;30.10;63.60;;;;;;5058330;28;20120;-72
2023/05/26 12:02:48;;;;;;;11.57;3.13;;;29.90;63.60;;;;;;5061262;28;20036;-72
2023/05/26 12:05:26;;;;;;;11.32;3.60;;;29.80;62.50;;;;;;5069017;28;20024;-73
2023/05/26 12:08:06;;;;;;;15.70;3.88;;;29.80;63.00;;;;;;5054893;28;20423;-72
2023/05/26 12:10:32;;;;;;;15.00;3.22;;;29.90;62.90;;;;;;5055066;28;20021;-73
2023/05/26 12:12:58;;;;;;;14.15;3.22;;;30.10;62.60;;;;;;5054629;28;20033;-73
2023/05/26 12:15:25;;;;;;;11.50;3.45;;;30.10;62.20;;;;;;5054657;28;20040;-71
2023/05/26 12:18:00;;;;;;;16.77;3.85;;;29.90;63.00;;;;;;5054633;28;20078;-74
2023/05/26 12:20:29;;;;;;;12.73;3.58;;;29.70;63.40;;;;;;5036957;28;20416;-73
2023/05/26 12:23:02;;;;;;;10.75;3.13;;;29.40;62.90;;;;;;5054616;28;20049;-73
2023/05/26 12:25:32;;;;;;;11.90;3.20;;;29.40;62.60;;;;;;5054665;28;20055;-72
2023/05/26 12:27:58;;;;;;;16.33;3.83;;;29.10;62.20;;;;;;5054400;28;20021;-72
2023/05/26 12:30:28;;;;;;;16.75;2.80;;;28.80;62.80;;;;;;5054052;28;20080;-72
2023/05/26 12:32:54;;;;;;;18.20;4.15;;;28.60;61.90;;;;;;5071606;28;20109;-70
2023/05/26 12:35:20;;;;;;;9.73;2.63;;;28.40;61.50;;;;;;5074073;28;20539;-74
2023/05/26 12:37:45;;;;;;;11.73;3.10;;;28.20;62.00;;;;;;5074384;28;20157;-71
2023/05/26 12:40:11;;;;;;;10.00;2.80;;;28.00;62.50;;;;;;5073896;28;20021;-73
2023/05/26 12:42:39;;;;;;;15.45;3.22;;;27.70;63.80;;;;;;5074322;28;20056;-72